createdAt,value
2022-10-19T00:02:12.842Z,4.70
2022-10-19T00:05:54.766Z,5.53
2022-10-19T00:09:36.634Z,6.40
2022-10-19T00:13:18.556Z,5.40
2022-10-19T00:17:00.393Z,4.90
2022-10-19T00:20:42.322Z,4.65
2022-10-19T00:24:24.229Z,5.00
2022-10-19T00:28:06.164Z,3.67
2022-10-19T00:31:52.815Z,6.95
2022-10-19T00:35:34.717Z,3.35
2022-10-19T00:39:18.289Z,4.13
2022-10-19T00:43:00.140Z,4.60
2022-10-19T00:46:43.994Z,4.43
2022-10-19T00:50:25.867Z,3.85
2022-10-19T00:54:09.203Z,5.70
2022-10-19T01:05:19.958Z,4.68
2022-10-19T01:09:01.841Z,4.63
2022-10-19T01:13:14.659Z,5.82
2022-10-19T01:17:15.292Z,5.15
2022-10-19T01:21:15.933Z,6.05
2022-10-19T01:25:32.774Z,3.88
2022-10-19T01:29:37.699Z,8.90
2022-10-19T01:33:38.312Z,5.28
2022-10-19T01:37:28.393Z,4.30
2022-10-19T01:41:13.362Z,5.40
2022-10-19T01:45:18.309Z,6.97
2022-10-19T01:49:26.860Z,4.93
2022-10-19T01:53:12.425Z,5.90
2022-10-19T01:56:58.647Z,5.43
2022-10-19T02:00:44.023Z,5.28
2022-10-19T02:04:26.626Z,6.55
2022-10-19T02:08:16.500Z,5.47
2022-10-19T02:12:03.819Z,6.25
2022-10-19T02:15:50.381Z,3.42
2022-10-19T02:19:32.340Z,7.35
2022-10-19T02:23:17.494Z,5.43
2022-10-19T02:27:00.729Z,5.60
2022-10-19T02:30:43.249Z,5.78
2022-10-19T02:34:25.454Z,4.38
2022-10-19T02:38:09.717Z,6.07
2022-10-19T02:42:17.117Z,4.22
2022-10-19T02:46:13.917Z,5.40
2022-10-19T02:49:55.765Z,4.30
2022-10-19T02:53:37.623Z,4.35
2022-10-19T02:57:24.789Z,4.25
2022-10-19T03:01:06.809Z,6.38
2022-10-19T03:04:48.896Z,5.18
2022-10-19T03:08:30.782Z,5.50
2022-10-19T03:12:14.015Z,5.18
2022-10-19T03:15:55.892Z,4.22
2022-10-19T03:19:38.411Z,5.18
2022-10-19T03:23:20.287Z,5.45
2022-10-19T03:27:02.219Z,7.18
2022-10-19T03:30:44.061Z,5.65
2022-10-19T03:34:25.966Z,5.38
2022-10-19T03:38:07.856Z,5.18
2022-10-19T03:41:49.715Z,4.28
2022-10-19T03:45:32.106Z,6.10
2022-10-19T03:49:15.416Z,5.45
2022-10-19T03:52:57.369Z,4.93
2022-10-19T03:56:39.650Z,7.55
2022-10-19T04:00:21.594Z,4.50
2022-10-19T04:04:06.987Z,5.65
2022-10-19T04:07:48.818Z,9.20
2022-10-19T04:11:31.517Z,4.03
2022-10-19T04:15:13.405Z,7.70
2022-10-19T04:18:55.471Z,4.95
2022-10-19T04:22:37.355Z,5.18
2022-10-19T04:26:20.343Z,6.85
2022-10-19T04:30:02.299Z,5.13
2022-10-19T04:33:44.216Z,3.92
2022-10-19T04:37:26.081Z,5.00
2022-10-19T04:41:13.556Z,4.40
2022-10-19T04:44:55.419Z,4.35
2022-10-19T04:48:39.373Z,5.38
2022-10-19T04:52:21.324Z,5.13
2022-10-19T04:56:08.798Z,5.35
2022-10-19T04:59:50.670Z,6.30
2022-10-19T05:03:32.514Z,4.75
2022-10-19T05:07:14.449Z,5.35
2022-10-19T05:11:05.125Z,8.00
2022-10-19T05:14:47.018Z,3.15
2022-10-19T05:18:29.420Z,5.45
2022-10-19T05:22:11.271Z,4.13
2022-10-19T05:26:03.308Z,5.25
2022-10-19T05:29:45.179Z,6.03
2022-10-19T05:33:27.032Z,5.38
2022-10-19T05:37:08.908Z,4.85
2022-10-19T05:40:53.594Z,6.13
2022-10-19T05:44:36.114Z,6.05
2022-10-19T05:48:18.014Z,8.55
2022-10-19T05:51:59.923Z,6.80
2022-10-19T05:55:43.620Z,5.07
2022-10-19T05:59:25.538Z,3.45
2022-10-19T06:03:07.407Z,4.70
2022-10-19T06:06:49.252Z,5.85
2022-10-19T06:10:31.115Z,4.47
2022-10-19T06:14:15.424Z,6.60
2022-10-19T06:17:57.298Z,5.75
2022-10-19T06:21:41.901Z,5.93
2022-10-19T06:25:26.809Z,7.18
2022-10-19T06:29:09.685Z,4.00
2022-10-19T06:32:51.614Z,7.53
2022-10-19T06:36:33.802Z,4.18
2022-10-19T06:40:15.760Z,5.95
2022-10-19T06:43:57.924Z,4.35
2022-10-19T06:47:39.840Z,8.57
2022-10-19T06:51:22.298Z,6.05
2022-10-19T06:55:04.801Z,5.07
2022-10-19T06:58:48.087Z,5.05
2022-10-19T07:02:29.931Z,8.27
2022-10-19T07:06:13.599Z,6.90
2022-10-19T07:09:55.435Z,6.07
2022-10-19T07:13:38.536Z,5.32
2022-10-19T07:17:20.572Z,6.40
2022-10-19T07:21:05.748Z,9.20
2022-10-19T07:24:47.608Z,4.25
2022-10-19T07:28:30.792Z,6.32
2022-10-19T07:32:12.678Z,5.72
2022-10-19T07:35:59.997Z,6.57
2022-10-19T07:39:41.875Z,6.45
2022-10-19T07:43:23.747Z,5.60
2022-10-19T07:47:06.249Z,4.72
2022-10-19T07:50:49.008Z,7.28
2022-10-19T07:54:30.937Z,6.80
2022-10-19T07:58:12.852Z,6.82
2022-10-19T08:01:55.962Z,4.75
2022-10-19T08:05:38.111Z,6.03
2022-10-19T08:09:47.384Z,7.63
2022-10-19T08:13:22.114Z,6.13
2022-10-19T08:17:03.976Z,5.95
2022-10-19T08:20:46.050Z,4.68
2022-10-19T08:24:27.881Z,5.38
2022-10-19T08:28:09.729Z,5.90
2022-10-19T08:31:52.718Z,6.03
2022-10-19T08:35:35.638Z,6.88
2022-10-19T08:39:18.326Z,6.28
2022-10-19T08:43:34.836Z,7.75
2022-10-19T08:47:28.623Z,4.95
2022-10-19T08:51:12.623Z,6.22
2022-10-19T08:55:00.967Z,6.20
2022-10-19T08:58:55.813Z,5.28
2022-10-19T09:02:43.570Z,3.92
2022-10-19T09:06:37.031Z,4.90
2022-10-19T09:10:34.972Z,4.78
2022-10-19T09:14:24.658Z,5.53
2022-10-19T09:18:27.905Z,4.88
2022-10-19T09:22:25.437Z,4.88
2022-10-19T09:26:18.997Z,4.53
2022-10-19T09:30:19.214Z,5.40
2022-10-19T09:34:08.698Z,5.15
2022-10-19T09:37:51.947Z,4.38
2022-10-19T09:41:34.178Z,3.28
2022-10-19T09:45:51.169Z,3.58
2022-10-19T09:49:49.918Z,4.93
2022-10-19T09:53:31.884Z,4.45
2022-10-19T09:57:21.923Z,5.18
2022-10-19T10:01:04.088Z,5.30
2022-10-19T10:05:06.933Z,5.53
2022-10-19T10:09:00.782Z,4.57
2022-10-19T10:12:43.695Z,4.80
2022-10-19T10:16:30.416Z,4.82
2022-10-19T10:20:27.849Z,4.30
2022-10-19T10:24:12.812Z,3.35
2022-10-19T10:28:20.968Z,4.78
2022-10-19T10:32:22.440Z,4.63
2022-10-19T10:36:08.262Z,4.57
2022-10-19T10:39:57.838Z,4.27
2022-10-19T10:43:59.577Z,5.10
2022-10-19T10:47:48.233Z,5.90
2022-10-19T10:51:43.722Z,5.88
2022-10-19T10:55:26.706Z,4.88
2022-10-19T10:59:17.823Z,3.10
2022-10-19T11:03:13.200Z,3.97
2022-10-19T11:07:19.823Z,4.00
2022-10-19T11:11:01.687Z,3.45
2022-10-19T11:14:51.309Z,5.90
2022-10-19T11:18:37.659Z,6.60
2022-10-19T11:26:25.009Z,7.57
2022-10-19T11:30:20.084Z,5.50
2022-10-19T11:34:25.143Z,4.47
2022-10-19T11:38:51.648Z,4.57
2022-10-19T11:42:57.331Z,4.20
2022-10-19T11:46:50.918Z,3.72
2022-10-19T11:50:44.117Z,2.85
2022-10-19T11:54:49.978Z,4.65
2022-10-19T11:58:42.307Z,3.95
2022-10-19T12:02:42.881Z,4.43
2022-10-19T12:06:48.742Z,4.13
2022-10-19T12:10:54.778Z,3.33
2022-10-19T12:14:41.535Z,2.90
2022-10-19T12:18:49.411Z,4.63
2022-10-19T12:22:34.118Z,2.40
2022-10-19T12:30:13.057Z,2.47
2022-10-19T12:34:05.889Z,2.47
2022-10-19T12:37:59.978Z,4.03
2022-10-19T12:41:52.569Z,3.17
2022-10-19T12:45:36.221Z,3.97
2022-10-19T12:49:30.120Z,3.60
2022-10-19T12:53:32.353Z,2.22
2022-10-19T12:57:48.127Z,2.97
2022-10-19T13:01:36.177Z,4.55
2022-10-19T13:05:26.317Z,2.92
2022-10-19T13:09:21.347Z,4.85
2022-10-19T13:13:03.740Z,2.92
2022-10-19T13:16:59.765Z,5.80
2022-10-19T13:20:53.144Z,3.35
2022-10-19T13:24:36.978Z,3.95
2022-10-19T13:28:28.034Z,5.22
2022-10-19T13:32:31.909Z,3.15
2022-10-19T13:36:14.601Z,3.88
2022-10-19T13:39:57.705Z,4.43
2022-10-19T13:43:58.348Z,4.07
2022-10-19T13:47:43.391Z,2.22
2022-10-19T13:51:50.301Z,4.28
2022-10-19T13:59:49.559Z,2.75
2022-10-19T14:03:53.007Z,3.03
2022-10-19T14:08:03.889Z,3.92
2022-10-19T14:11:49.842Z,3.28
2022-10-19T14:15:34.153Z,4.28
2022-10-19T14:19:26.905Z,2.25
2022-10-19T14:23:19.463Z,2.75
2022-10-19T14:27:06.733Z,4.65
2022-10-19T14:30:59.847Z,3.45
2022-10-19T14:34:43.882Z,2.28
2022-10-19T14:38:25.683Z,3.33
2022-10-19T14:42:10.620Z,3.53
2022-10-19T14:46:07.868Z,5.30
2022-10-19T14:49:50.812Z,3.78
2022-10-19T14:53:45.742Z,3.42
2022-10-19T14:57:32.798Z,4.22
2022-10-19T15:01:17.557Z,3.55
2022-10-19T15:05:02.224Z,3.75
2022-10-19T15:08:50.984Z,4.35
2022-10-19T15:12:39.737Z,5.15
2022-10-19T15:16:34.333Z,3.95
2022-10-19T15:20:43.757Z,2.95
2022-10-19T15:24:36.432Z,3.42
2022-10-19T15:28:41.443Z,3.22
2022-10-19T15:32:26.757Z,3.85
2022-10-19T15:36:17.497Z,5.53
2022-10-19T15:39:59.499Z,4.05
2022-10-19T15:44:27.762Z,4.30
2022-10-19T15:48:26.326Z,5.18
2022-10-19T15:52:19.622Z,5.95
2022-10-19T15:56:01.568Z,4.82
2022-10-19T15:59:43.938Z,5.60
2022-10-19T16:03:25.789Z,6.03
2022-10-19T16:07:14.587Z,4.50
2022-10-19T16:10:56.482Z,5.65
2022-10-19T16:14:38.362Z,5.60
2022-10-19T16:18:20.199Z,4.65
2022-10-19T16:22:02.052Z,5.80
2022-10-19T16:25:43.928Z,4.43
2022-10-19T16:29:28.928Z,5.82
2022-10-19T16:33:11.035Z,4.85
2022-10-19T16:36:53.010Z,4.00
2022-10-19T16:40:34.888Z,5.53
2022-10-19T16:44:17.021Z,5.38
2022-10-19T16:47:59.141Z,5.30
2022-10-19T16:51:42.336Z,4.13
2022-10-19T16:55:28.408Z,8.68
2022-10-19T16:59:13.662Z,8.15
2022-10-19T17:02:55.550Z,5.07
2022-10-19T17:06:37.514Z,9.23
2022-10-19T17:10:19.440Z,5.05
2022-10-19T17:14:05.617Z,3.85
2022-10-19T17:17:47.458Z,4.38
2022-10-19T17:21:31.911Z,7.40
2022-10-19T17:25:14.022Z,6.47
2022-10-19T17:28:57.038Z,7.03
2022-10-19T17:32:38.919Z,7.15
2022-10-19T17:36:27.307Z,6.78
2022-10-19T17:40:09.785Z,5.30
2022-10-19T17:43:52.529Z,5.50
2022-10-19T17:47:34.603Z,7.47
2022-10-19T17:51:23.654Z,6.85
2022-10-19T17:55:13.689Z,6.75
2022-10-19T17:58:57.224Z,4.68
2022-10-19T18:02:39.919Z,5.38
2022-10-19T18:06:24.616Z,6.57
2022-10-19T18:10:06.620Z,4.88
2022-10-19T18:13:50.620Z,8.93
2022-10-19T18:17:32.566Z,4.80
2022-10-19T18:21:17.440Z,4.50
2022-10-19T18:24:59.328Z,6.88
2022-10-19T18:28:42.092Z,6.38
2022-10-19T18:32:23.965Z,5.85
2022-10-19T18:36:07.503Z,8.82
2022-10-19T18:39:49.362Z,8.27
2022-10-19T18:43:31.243Z,5.18
2022-10-19T18:47:13.234Z,6.65
2022-10-19T18:50:56.182Z,5.20
2022-10-19T18:54:38.076Z,9.63
2022-10-19T18:58:19.953Z,6.65
2022-10-19T19:02:01.902Z,7.68
2022-10-19T19:05:43.753Z,5.72
2022-10-19T19:09:25.686Z,6.50
2022-10-19T19:13:08.099Z,8.75
2022-10-19T19:16:50.073Z,7.63
2022-10-19T19:20:31.953Z,8.13
2022-10-19T19:24:16.487Z,5.53
2022-10-19T19:28:01.114Z,8.02
2022-10-19T19:31:44.662Z,8.30
2022-10-19T19:35:27.713Z,8.52
2022-10-19T19:39:11.160Z,6.43
2022-10-19T19:42:53.143Z,9.88
2022-10-19T19:46:35.966Z,8.70
2022-10-19T19:50:19.446Z,9.02
2022-10-19T19:54:01.464Z,6.75
2022-10-19T19:57:43.603Z,7.18
2022-10-19T20:01:26.538Z,7.88
2022-10-19T20:05:11.930Z,7.75
2022-10-19T20:08:56.378Z,7.00
2022-10-19T20:12:40.374Z,7.32
2022-10-19T20:16:28.301Z,11.55
2022-10-19T20:20:13.246Z,8.13
2022-10-19T20:23:55.170Z,7.13
2022-10-19T20:27:37.391Z,10.05
2022-10-19T20:31:19.976Z,7.20
2022-10-19T20:35:03.611Z,8.32
2022-10-19T20:38:48.295Z,8.82
2022-10-19T20:42:30.152Z,7.13
2022-10-19T20:46:15.863Z,5.68
2022-10-19T20:49:57.834Z,7.82
2022-10-19T20:53:39.897Z,5.90
2022-10-19T20:57:21.760Z,9.48
2022-10-19T21:01:09.479Z,7.20
2022-10-19T21:04:51.333Z,8.13
2022-10-19T21:08:37.314Z,8.00
2022-10-19T21:12:19.232Z,7.20
2022-10-19T21:16:10.613Z,7.35
2022-10-19T21:19:52.478Z,6.65
2022-10-19T21:23:34.340Z,11.85
2022-10-19T21:27:16.284Z,9.43
2022-10-19T21:31:05.918Z,9.95
2022-10-19T21:34:47.767Z,9.02
2022-10-19T21:38:30.788Z,8.00
2022-10-19T21:42:12.652Z,10.00
2022-10-19T21:45:54.542Z,7.55
2022-10-19T21:49:39.019Z,7.75
2022-10-19T21:53:22.717Z,8.93
2022-10-19T21:57:04.689Z,9.35
2022-10-19T22:00:46.528Z,9.20
2022-10-19T22:04:28.659Z,10.23
2022-10-19T22:08:10.489Z,9.25
2022-10-19T22:11:52.447Z,8.73
2022-10-19T22:15:38.073Z,10.35
2022-10-19T22:19:19.994Z,9.90
2022-10-19T22:23:02.393Z,10.80
2022-10-19T22:26:47.201Z,8.27
2022-10-19T22:30:29.216Z,9.73
2022-10-19T22:34:16.643Z,9.32
2022-10-19T22:37:58.464Z,10.35
2022-10-19T22:41:40.346Z,8.65
2022-10-19T22:45:22.213Z,10.25
2022-10-19T22:49:04.314Z,11.82
2022-10-19T22:52:46.213Z,8.73
2022-10-19T22:56:28.261Z,12.02
2022-10-19T23:00:10.809Z,10.93
2022-10-19T23:03:52.782Z,8.38
2022-10-19T23:07:34.849Z,7.43
2022-10-19T23:11:17.152Z,10.02
2022-10-19T23:14:58.980Z,11.15
2022-10-19T23:18:41.577Z,8.45
2022-10-19T23:22:23.448Z,10.02
2022-10-19T23:26:06.787Z,10.70
2022-10-19T23:29:48.660Z,9.25
2022-10-19T23:33:31.622Z,9.55
2022-10-19T23:37:13.487Z,7.88
2022-10-19T23:40:55.359Z,8.35
2022-10-19T23:44:37.204Z,10.48
2022-10-19T23:48:19.173Z,11.50
2022-10-19T23:52:01.138Z,13.20
2022-10-19T23:55:42.992Z,8.70
2022-10-19T23:59:24.891Z,11.45
